Grissom ARB Airport Peru US
ICAO: KGUS
IATA: GUS
Category: Large
Scheduled Services: No

Elevation: 812 ft
TransAlt. 18000 ft.

Airport Communications:
APP:121.05
ATIS:108.45
CLNC DEL:120
DEP:121.05
GND:128.425
PMSV METRO:34.46
PTD:37.22
TWR:133.7

KGUS Zoom In..

If you have problems with the map follow the link
https://www.worldairports.se/pages/airport.php?
ICAO=KGUS

Runways:

(A) RW 05 length 12501 ft width 200 ft
ILS 109.50 / hdg 46

(B) RW 23 length 12501 ft width 200 ft
ILS 109.50 / hdg 226

Location; KGUS
Day. 13 / Time. 12.56 Zulu
* Altimeter: 30.01
* Temperature: -01° c. -30.2°f.
* Wind from: 180° Speed 06 kn.
Dewpoint: -01° c.
Visibility: 10 Statute Miles.
Clouds: Few 23000 ft.

KGUS 131256Z AUTO 18006KT 10SM FEW230 M01/M01 A3001 RMK AO2 SLP174 T10091010 TSNO $


Wind From 180°
Speed 06 kn.

 
 
jpsmedia worldairports.se 2019   terms of use